Pinecraft, Florida
Current Conditions -  °F | °C
As of 1:53 PM on Monday 20 Oct 2014 (Local Time) from KSRQ Reporting Station
Clear Clear  
Wind Chill: 84°   Ceiling: Unl
Heat Index: 85°   Visibility: 10mi
Dew Point: 62°   Wind: 7mph
Humidity: 47%   Direction: 100°E
Pressure: 29.96"   Gusts: NA
Location:  27.3356°N, 82.5364°W
Report Text: KSRQ 201753Z 10006KT 10SM CLR 29/17 A2996 RMK AO2 SLP145 T02890167 10294 20189 58023
Loading
Personal Weather Stations






























Interactive Weather Map
Tropical Storm Tracking
New forecast layout! Learn more

10-Day Weather Forecast

Advertisements
Track Severe Weather on mobile